Time;durP1;ratioP1;P1;durP2;ratioP2;P2;SDS_P1;SDS_P2;PMS_P1;PMS_P2;Temp;Humidity;BMP_temperature;BMP_pressure;BME280_temperature;BME280_humidity;BME280_pressure;Samples;Min_cycle;Max_cycle;Signal;HPM_P1;HPM_P2
2023/07/29 00:00:11;;;;;;;5.32;2.50;;;16.30;99.90;;;;;;5129403;28;20039;-65
2023/07/29 00:02:40;;;;;;;4.95;2.13;;;16.30;99.90;;;;;;5131599;27;20039;-66
2023/07/29 00:05:07;;;;;;;3.63;2.10;;;16.30;99.90;;;;;;5123054;27;20128;-65
2023/07/29 00:07:34;;;;;;;;;;;16.30;99.90;;;;;;5132091;27;20046;-64
2023/07/29 00:10:01;;;;;;;6.40;2.17;;;16.30;99.90;;;;;;5130375;28;19925;-64
2023/07/29 00:12:28;;;;;;;3.75;1.77;;;16.30;99.90;;;;;;5131592;27;20484;-64
2023/07/29 00:14:55;;;;;;;4.15;2.08;;;16.40;99.90;;;;;;5129436;27;20031;-65
2023/07/29 00:17:21;;;;;;;2.97;1.95;;;16.30;99.90;;;;;;5131348;27;20038;-64
2023/07/29 00:19:48;;;;;;;4.43;1.95;;;16.50;99.90;;;;;;5133980;27;20084;-64
2023/07/29 00:22:15;;;;;;;3.30;1.67;;;16.50;99.90;;;;;;5131439;27;20039;-64
2023/07/29 00:24:42;;;;;;;1.88;1.45;;;16.50;99.90;;;;;;5122512;27;20035;-64
2023/07/29 00:27:08;;;;;;;4.18;1.95;;;16.60;99.90;;;;;;5129924;27;20041;-64
2023/07/29 00:29:35;;;;;;;5.90;2.50;;;16.50;99.90;;;;;;5123953;27;20042;-64
2023/07/29 00:32:02;;;;;;;3.55;2.55;;;16.40;99.90;;;;;;5114856;27;20556;-64
2023/07/29 00:34:30;;;;;;;4.95;2.53;;;16.30;99.90;;;;;;5129670;27;20031;-65
2023/07/29 00:36:57;;;;;;;4.22;2.33;;;16.20;99.90;;;;;;5107794;27;20051;-64
2023/07/29 00:39:24;;;;;;;4.50;2.75;;;16.20;99.90;;;;;;5116148;27;20391;-64
2023/07/29 00:41:51;;;;;;;5.75;2.63;;;16.10;99.90;;;;;;5150412;27;20096;-64
2023/07/29 00:44:18;;;;;;;3.75;2.30;;;16.20;99.90;;;;;;5096869;27;20499;-64
2023/07/29 00:46:45;;;;;;;4.15;2.20;;;16.10;99.90;;;;;;5107933;27;20396;-64
2023/07/29 00:49:12;;;;;;;5.10;2.40;;;16.20;99.90;;;;;;5133741;27;20070;-64
2023/07/29 00:51:41;;;;;;;3.78;2.55;;;16.20;99.90;;;;;;5126356;27;20484;-64
2023/07/29 00:54:07;;;;;;;5.00;2.45;;;16.30;99.90;;;;;;5114789;27;20065;-64
2023/07/29 00:56:35;;;;;;;4.45;2.80;;;16.30;99.90;;;;;;5134845;27;20427;-64
2023/07/29 00:59:04;;;;;;;5.93;3.03;;;16.20;99.90;;;;;;5107506;27;20596;-64
2023/07/29 01:01:31;;;;;;;4.43;2.80;;;16.20;99.90;;;;;;5109473;27;20130;-64
2023/07/29 01:03:58;;;;;;;4.38;2.78;;;16.20;99.90;;;;;;5113134;27;20100;-64
2023/07/29 01:06:40;;;;;;;;;;;16.20;99.90;;;;;;5107427;27;20035;-64
2023/07/29 01:09:20;;;;;;;5.22;2.67;;;16.20;99.90;;;;;;5116176;27;19919;-64
2023/07/29 01:12:02;;;;;;;7.47;3.35;;;16.20;99.90;;;;;;5113380;27;20104;-64
2023/07/29 01:14:44;;;;;;;5.18;3.65;;;16.20;99.90;;;;;;5110236;28;20071;-64
2023/07/29 01:17:30;;;;;;;10.32;4.75;;;16.20;99.90;;;;;;5112880;27;20519;-64
2023/07/29 01:20:07;;;;;;;6.60;3.50;;;16.10;99.90;;;;;;5089501;28;20055;-64
2023/07/29 01:22:36;;;;;;;4.83;3.10;;;16.00;99.90;;;;;;5119674;27;20073;-64
2023/07/29 01:25:04;;;;;;;8.55;3.70;;;16.20;99.90;;;;;;5128581;27;20502;-64
2023/07/29 01:27:30;;;;;;;5.90;3.40;;;16.10;99.90;;;;;;5115431;27;20046;-64
2023/07/29 01:29:59;;;;;;;5.95;3.47;;;16.10;99.90;;;;;;5113863;27;20507;-64
2023/07/29 01:32:31;;;;;;;6.63;3.58;;;16.10;99.90;;;;;;5115119;27;20042;-64
2023/07/29 01:35:07;;;;;;;5.88;3.10;;;16.10;99.90;;;;;;5106156;28;20039;-64
2023/07/29 01:37:36;;;;;;;5.43;3.35;;;16.10;99.90;;;;;;5109800;28;20496;-64
2023/07/29 01:40:05;;;;;;;5.53;3.33;;;16.20;99.90;;;;;;5111272;27;20035;-64
2023/07/29 01:42:31;;;;;;;8.82;3.47;;;16.10;99.90;;;;;;5109051;28;20032;-64
2023/07/29 01:44:59;;;;;;;7.78;3.88;;;16.10;99.90;;;;;;5126922;27;20027;-65
2023/07/29 01:47:25;;;;;;;;;;;16.10;99.90;;;;;;5131013;27;20074;-64
2023/07/29 01:49:54;;;;;;;5.22;3.50;;;16.10;99.90;;;;;;5114418;27;19923;-64
2023/07/29 01:52:21;;;;;;;5.40;3.33;;;16.10;99.90;;;;;;5131923;27;20050;-64
2023/07/29 01:54:48;;;;;;;5.72;3.35;;;16.20;99.90;;;;;;5105976;27;20499;-64
2023/07/29 01:57:14;;;;;;;6.70;3.22;;;16.20;99.90;;;;;;5114273;27;20054;-64
2023/07/29 01:59:41;;;;;;;4.85;3.05;;;16.20;99.90;;;;;;5104049;27;20131;-64
2023/07/29 02:02:08;;;;;;;6.63;3.50;;;16.10;99.90;;;;;;5124344;27;20040;-64
2023/07/29 02:04:35;;;;;;;5.10;3.78;;;16.20;99.90;;;;;;5132744;27;20039;-65
2023/07/29 02:07:02;;;;;;;7.43;3.67;;;16.20;99.90;;;;;;5109872;27;20047;-65
2023/07/29 02:09:30;;;;;;;5.93;3.08;;;16.20;99.90;;;;;;5099142;27;20575;-64
2023/07/29 02:11:57;;;;;;;5.18;3.30;;;16.20;99.90;;;;;;5132758;27;20045;-64
2023/07/29 02:14:24;;;;;;;4.95;2.72;;;16.20;99.90;;;;;;5112185;27;20043;-64
2023/07/29 02:16:51;;;;;;;5.30;2.92;;;16.20;99.90;;;;;;5126611;27;20040;-64
2023/07/29 02:19:18;;;;;;;2.95;2.25;;;16.20;99.90;;;;;;5101272;27;20058;-64
2023/07/29 02:21:44;;;;;;;4.72;2.80;;;16.30;99.90;;;;;;5131990;27;20042;-64
2023/07/29 02:24:11;;;;;;;6.68;2.38;;;16.20;99.90;;;;;;5109813;27;20050;-64
2023/07/29 02:26:38;;;;;;;3.67;2.58;;;16.20;99.90;;;;;;5102034;28;20138;-64
2023/07/29 02:29:05;;;;;;;3.50;2.67;;;16.20;99.90;;;;;;5128335;27;20040;-64
2023/07/29 02:31:32;;;;;;;2.88;2.38;;;16.10;99.90;;;;;;5105898;27;20043;-64
2023/07/29 02:33:59;;;;;;;5.93;3.20;;;16.00;99.90;;;;;;5113388;27;20059;-64
2023/07/29 02:36:25;;;;;;;6.32;2.72;;;16.10;99.90;;;;;;5114451;27;20051;-65
2023/07/29 02:38:52;;;;;;;3.55;2.33;;;16.10;99.90;;;;;;5104090;27;20044;-65
2023/07/29 02:41:19;;;;;;;3.58;2.70;;;16.10;99.90;;;;;;5093320;27;20127;-64
2023/07/29 02:43:50;;;;;;;4.47;2.30;;;16.10;99.90;;;;;;5111681;27;20035;-64
2023/07/29 02:46:18;;;;;;;5.70;2.63;;;16.10;99.90;;;;;;5113951;27;20043;-64
2023/07/29 02:48:44;;;;;;;;;;;16.10;99.90;;;;;;5112205;27;20088;-64
2023/07/29 02:51:11;;;;;;;5.22;2.70;;;16.10;99.90;;;;;;5113661;27;19919;-64
2023/07/29 02:53:38;;;;;;;4.68;2.72;;;16.10;99.90;;;;;;5090205;28;20138;-64
2023/07/29 02:56:09;;;;;;;7.00;2.70;;;16.10;99.90;;;;;;5101479;27;20039;-64
2023/07/29 02:58:37;;;;;;;5.80;2.70;;;16.10;99.90;;;;;;5131953;27;20035;-64
2023/07/29 03:01:05;;;;;;;5.18;2.50;;;16.00;99.90;;;;;;5111499;27;20134;-64
2023/07/29 03:03:33;;;;;;;6.07;2.50;;;16.00;99.90;;;;;;5098840;27;20076;-64
2023/07/29 03:06:03;;;;;;;3.75;2.78;;;16.00;99.90;;;;;;5104888;27;20089;-64
2023/07/29 03:08:30;;;;;;;5.05;2.60;;;16.00;99.90;;;;;;5130727;27;20034;-64
2023/07/29 03:10:57;;;;;;;6.35;2.70;;;15.90;99.90;;;;;;5131639;27;20039;-64
2023/07/29 03:13:25;;;;;;;4.82;2.65;;;16.00;99.90;;;;;;5109333;28;20134;-64
2023/07/29 03:15:52;;;;;;;4.07;2.63;;;16.00;99.90;;;;;;5106404;28;20114;-64
2023/07/29 03:18:18;;;;;;;5.10;2.90;;;16.00;99.90;;;;;;5110845;27;20047;-64
2023/07/29 03:20:45;;;;;;;6.93;2.50;;;15.90;99.90;;;;;;5112958;27;20039;-64
2023/07/29 03:23:12;;;;;;;6.43;2.50;;;15.90;99.90;;;;;;5132030;27;20035;-64
2023/07/29 03:25:39;;;;;;;4.60;2.83;;;15.90;99.90;;;;;;5105483;27;20040;-64
2023/07/29 03:28:06;;;;;;;4.70;2.70;;;16.20;99.90;;;;;;5113321;28;20055;-64
2023/07/29 03:30:32;;;;;;;5.00;3.17;;;15.90;99.90;;;;;;5110366;28;20043;-65
2023/07/29 03:32:59;;;;;;;4.38;2.63;;;15.90;99.90;;;;;;5104107;28;20063;-64
2023/07/29 03:35:26;;;;;;;5.82;2.90;;;15.90;99.90;;;;;;5105999;28;20057;-64
2023/07/29 03:37:53;;;;;;;4.72;2.85;;;15.90;99.90;;;;;;5111883;28;20049;-64
2023/07/29 03:40:20;;;;;;;4.63;2.65;;;16.00;99.90;;;;;;5107997;28;20043;-65
2023/07/29 03:42:46;;;;;;;7.50;2.83;;;16.00;99.90;;;;;;5132072;27;20443;-64
2023/07/29 03:45:13;;;;;;;8.10;3.40;;;16.10;99.90;;;;;;5096662;28;20126;-65
2023/07/29 03:47:40;;;;;;;3.20;2.22;;;16.00;99.90;;;;;;5107023;28;20043;-64
2023/07/29 03:50:08;;;;;;;5.25;2.53;;;15.90;99.90;;;;;;5146606;27;20050;-64
2023/07/29 03:52:35;;;;;;;4.13;2.22;;;15.90;99.90;;;;;;5112173;28;20039;-64
2023/07/29 03:55:02;;;;;;;5.32;2.03;;;15.90;99.90;;;;;;5135123;27;20047;-64
2023/07/29 03:57:29;;;;;;;5.30;2.08;;;15.90;99.90;;;;;;5134256;27;20472;-64
2023/07/29 03:59:56;;;;;;;3.92;2.00;;;15.80;99.90;;;;;;5110027;27;20046;-65
2023/07/29 04:02:23;;;;;;;6.38;2.22;;;15.90;99.90;;;;;;5117603;27;20066;-64
2023/07/29 04:04:50;;;;;;;3.33;2.00;;;15.90;99.90;;;;;;5116771;27;20039;-64
2023/07/29 04:07:17;;;;;;;3.72;2.03;;;15.90;99.90;;;;;;5113076;28;20403;-64
2023/07/29 04:09:44;;;;;;;4.82;1.80;;;15.90;99.90;;;;;;5097769;28;20039;-64
2023/07/29 04:12:11;;;;;;;6.47;2.35;;;16.00;99.90;;;;;;5111196;27;20051;-64
2023/07/29 04:14:37;;;;;;;2.78;1.95;;;16.00;99.90;;;;;;5114513;27;20476;-64
2023/07/29 04:17:05;;;;;;;4.65;2.08;;;16.00;99.90;;;;;;5130567;27;20035;-65
2023/07/29 04:19:31;;;;;;;3.58;1.83;;;16.00;99.90;;;;;;5115969;27;20049;-64
2023/07/29 04:21:59;;;;;;;;;;;16.00;99.90;;;;;;5110395;28;20040;-64
2023/07/29 04:24:26;;;;;;;3.17;1.83;;;16.00;99.90;;;;;;5107318;27;19923;-65
2023/07/29 04:26:52;;;;;;;3.55;1.95;;;16.00;99.90;;;;;;5116960;27;20078;-64
2023/07/29 04:29:19;;;;;;;3.78;2.17;;;16.10;99.90;;;;;;5116161;27;20043;-64
2023/07/29 04:31:46;;;;;;;2.63;1.50;;;16.10;99.90;;;;;;5104565;27;20100;-64
2023/07/29 04:34:14;;;;;;;3.58;1.92;;;16.10;99.90;;;;;;5105580;27;20516;-64
2023/07/29 04:36:41;;;;;;;3.88;1.83;;;16.20;99.90;;;;;;5107108;27;20073;-64
2023/07/29 04:39:08;;;;;;;3.28;1.73;;;16.10;99.90;;;;;;5115816;27;20043;-64
2023/07/29 04:41:34;;;;;;;3.85;2.00;;;16.20;99.90;;;;;;5113318;27;20073;-64
2023/07/29 04:44:01;;;;;;;2.67;1.70;;;16.20;99.90;;;;;;5132385;27;20054;-64
2023/07/29 04:46:28;;;;;;;4.72;2.42;;;16.20;99.90;;;;;;5135050;27;20391;-64
2023/07/29 04:48:55;;;;;;;3.90;2.00;;;16.20;99.90;;;;;;5127733;27;20054;-64
2023/07/29 04:51:23;;;;;;;3.90;2.15;;;16.20;99.90;;;;;;5103647;28;20039;-64
2023/07/29 04:53:50;;;;;;;3.28;2.10;;;16.20;99.90;;;;;;5122437;27;20379;-64
2023/07/29 04:56:17;;;;;;;5.10;1.80;;;16.30;99.90;;;;;;5115953;27;20049;-64
2023/07/29 04:58:45;;;;;;;5.63;2.50;;;16.30;99.90;;;;;;5109464;27;20038;-64
2023/07/29 05:01:11;;;;;;;8.77;2.92;;;16.30;99.90;;;;;;5099874;28;20043;-64
2023/07/29 05:03:39;;;;;;;5.10;2.17;;;16.20;99.90;;;;;;5100394;27;20048;-64
2023/07/29 05:06:07;;;;;;;4.10;2.45;;;16.20;99.90;;;;;;5114262;27;20141;-64
2023/07/29 05:08:34;;;;;;;3.63;2.28;;;16.30;99.90;;;;;;5120893;27;20127;-64
2023/07/29 05:11:01;;;;;;;;;;;16.10;99.90;;;;;;5115804;27;20517;-64
2023/07/29 05:13:28;;;;;;;5.30;2.78;;;16.10;99.90;;;;;;5133977;27;19997;-64
2023/07/29 05:15:55;;;;;;;4.00;2.78;;;16.30;99.90;;;;;;5131774;27;20043;-64
2023/07/29 05:18:22;;;;;;;4.50;2.35;;;16.40;99.90;;;;;;5107512;27;20044;-64
2023/07/29 05:20:49;;;;;;;3.63;2.60;;;16.30;99.90;;;;;;5103650;27;20050;-64
2023/07/29 05:23:15;;;;;;;3.03;2.22;;;16.40;99.90;;;;;;5111539;27;20078;-64
2023/07/29 05:25:42;;;;;;;4.35;2.10;;;16.50;99.90;;;;;;5103699;27;20055;-64
2023/07/29 05:28:09;;;;;;;4.97;2.10;;;16.70;99.90;;;;;;5117613;27;20055;-64
2023/07/29 05:30:37;;;;;;;3.42;2.28;;;16.90;99.90;;;;;;5114102;27;20411;-64
2023/07/29 05:33:07;;;;;;;2.33;1.73;;;16.90;99.90;;;;;;5111737;27;20059;-65
2023/07/29 05:35:34;;;;;;;4.45;1.80;;;17.00;99.90;;;;;;5114696;27;20513;-64
2023/07/29 05:38:03;;;;;;;4.43;2.58;;;17.10;99.90;;;;;;5131769;27;20039;-64
2023/07/29 05:40:30;;;;;;;2.78;2.33;;;17.10;99.90;;;;;;5106405;27;20438;-64
2023/07/29 05:42:57;;;;;;;2.70;1.92;;;17.00;99.90;;;;;;5108640;28;20055;-64
2023/07/29 05:45:24;;;;;;;5.97;2.40;;;17.00;99.90;;;;;;5095933;27;20040;-64
2023/07/29 05:47:50;;;;;;;2.72;1.77;;;16.90;99.90;;;;;;5130133;27;20053;-64
2023/07/29 05:50:17;;;;;;;4.97;2.15;;;16.90;99.90;;;;;;5131972;27;20122;-64
2023/07/29 05:52:44;;;;;;;3.50;2.22;;;16.90;99.90;;;;;;5100246;27;20051;-64
2023/07/29 05:55:11;;;;;;;3.85;2.95;;;16.90;99.90;;;;;;5100321;27;20568;-64
2023/07/29 05:57:38;;;;;;;;;;;16.80;99.90;;;;;;5115517;27;20134;-64
2023/07/29 06:00:10;;;;;;;5.20;2.30;;;16.90;99.90;;;;;;5110457;27;20315;-64
2023/07/29 06:02:42;;;;;;;3.53;2.60;;;16.90;99.90;;;;;;5131331;27;20457;-64
2023/07/29 06:05:14;;;;;;;6.45;2.33;;;17.60;99.90;;;;;;5113479;27;20047;-64
2023/07/29 06:07:44;;;;;;;4.22;3.08;;;17.20;99.90;;;;;;5121136;27;20130;-64
2023/07/29 06:10:18;;;;;;;3.45;2.20;;;17.20;99.90;;;;;;5119605;27;20509;-64
2023/07/29 06:12:46;;;;;;;3.53;2.40;;;17.30;99.90;;;;;;5140860;27;20034;-65
2023/07/29 06:15:13;;;;;;;6.82;2.40;;;17.40;99.90;;;;;;5108783;27;20087;-64
2023/07/29 06:17:41;;;;;;;5.22;2.13;;;17.70;99.90;;;;;;5123858;27;20035;-64
2023/07/29 06:20:08;;;;;;;2.88;2.40;;;17.80;99.90;;;;;;5122865;27;20031;-64
2023/07/29 06:22:35;;;;;;;7.05;2.42;;;17.80;99.90;;;;;;5120184;27;20638;-65
2023/07/29 06:25:02;;;;;;;3.95;2.30;;;18.00;99.90;;;;;;5118595;27;20039;-64
2023/07/29 06:27:29;;;;;;;;;;;18.10;99.90;;;;;;5143272;27;20047;-65
2023/07/29 06:29:56;;;;;;;3.67;2.42;;;18.20;99.90;;;;;;5139102;27;19919;-65
2023/07/29 06:32:23;;;;;;;5.45;2.72;;;18.30;99.90;;;;;;5141831;27;20046;-64
2023/07/29 06:34:51;;;;;;;4.05;3.05;;;18.40;99.90;;;;;;5139223;27;20063;-65
2023/07/29 06:37:18;;;;;;;3.20;2.30;;;18.50;99.90;;;;;;5140423;27;20043;-64
2023/07/29 06:39:45;;;;;;;4.63;2.90;;;18.70;99.90;;;;;;5134068;27;20479;-65
2023/07/29 06:42:12;;;;;;;3.63;2.78;;;18.70;99.90;;;;;;5141134;27;20043;-64
2023/07/29 06:44:39;;;;;;;4.63;2.72;;;18.70;99.90;;;;;;5139528;27;20041;-64
2023/07/29 06:47:06;;;;;;;5.20;3.03;;;18.50;99.90;;;;;;5135056;27;20043;-64
2023/07/29 06:49:33;;;;;;;;;;;18.30;99.90;;;;;;5140994;27;20038;-64
2023/07/29 06:52:01;;;;;;;6.35;3.22;;;18.10;99.90;;;;;;5143935;27;19938;-64
2023/07/29 06:54:27;;;;;;;4.63;2.97;;;18.00;99.90;;;;;;5141217;27;20039;-64
2023/07/29 06:56:54;;;;;;;3.60;3.10;;;17.70;99.90;;;;;;5124560;27;20141;-64
2023/07/29 06:59:21;;;;;;;5.63;3.30;;;17.60;99.90;;;;;;5119711;27;20037;-64
2023/07/29 07:01:48;;;;;;;4.47;3.13;;;17.60;99.90;;;;;;5140018;27;20039;-64
2023/07/29 07:04:15;;;;;;;6.40;3.25;;;17.50;99.90;;;;;;5141540;27;20062;-64
2023/07/29 07:06:41;;;;;;;4.53;3.47;;;17.60;99.90;;;;;;5141446;27;20438;-64
2023/07/29 07:09:08;;;;;;;4.50;3.42;;;17.50;99.90;;;;;;5141718;27;20049;-64
2023/07/29 07:11:35;;;;;;;4.13;2.90;;;17.60;99.90;;;;;;5139419;27;20035;-64
2023/07/29 07:14:01;;;;;;;5.68;3.30;;;17.50;99.90;;;;;;5139017;27;20046;-64
2023/07/29 07:16:31;;;;;;;4.15;3.20;;;17.50;99.90;;;;;;5142938;27;20045;-64
2023/07/29 07:18:58;;;;;;;6.85;3.10;;;17.50;99.90;;;;;;5144201;27;20047;-64
2023/07/29 07:21:25;;;;;;;8.75;3.17;;;17.50;99.90;;;;;;5135300;27;20041;-64
2023/07/29 07:23:52;;;;;;;5.20;3.03;;;17.40;99.90;;;;;;5141367;27;20109;-64
2023/07/29 07:26:19;;;;;;;4.65;3.13;;;17.40;99.90;;;;;;5138120;27;20043;-65
2023/07/29 07:28:45;;;;;;;4.43;3.45;;;17.40;99.90;;;;;;5134700;27;20031;-65
2023/07/29 07:31:12;;;;;;;3.97;3.13;;;17.40;99.90;;;;;;5131745;27;20054;-64
2023/07/29 07:33:39;;;;;;;3.42;2.60;;;17.40;99.90;;;;;;5132625;27;20039;-64
2023/07/29 07:36:06;;;;;;;6.13;3.90;;;17.40;99.90;;;;;;5129008;27;20036;-64
2023/07/29 07:38:32;;;;;;;4.03;3.35;;;17.40;99.90;;;;;;5124746;27;20033;-63
2023/07/29 07:40:59;;;;;;;4.30;3.13;;;17.50;99.90;;;;;;5130208;28;20035;-65
2023/07/29 07:43:26;;;;;;;4.55;3.50;;;17.50;99.90;;;;;;5135190;27;20042;-64
2023/07/29 07:45:58;;;;;;;5.95;4.47;;;17.50;99.90;;;;;;5133319;27;20035;-65
2023/07/29 07:48:26;;;;;;;6.80;3.58;;;17.70;99.90;;;;;;5135926;27;20513;-64
2023/07/29 07:50:53;;;;;;;7.30;4.20;;;17.60;99.90;;;;;;5115470;27;20047;-64
2023/07/29 07:53:20;;;;;;;3.35;2.70;;;17.70;99.90;;;;;;5118017;27;20384;-63
2023/07/29 07:55:47;;;;;;;4.03;2.90;;;17.80;99.90;;;;;;5134053;27;20026;-64
2023/07/29 07:58:13;;;;;;;4.85;3.28;;;17.80;99.90;;;;;;5140583;27;20547;-64
2023/07/29 08:00:40;;;;;;;5.25;3.38;;;17.90;99.90;;;;;;5131784;27;20133;-65
2023/07/29 08:03:07;;;;;;;4.95;3.38;;;17.90;99.90;;;;;;5136536;27;20047;-64
2023/07/29 08:05:34;;;;;;;5.00;3.05;;;17.90;99.90;;;;;;5133804;27;20480;-64
2023/07/29 08:08:01;;;;;;;4.32;3.33;;;17.90;99.90;;;;;;5112543;28;20061;-64
2023/07/29 08:10:27;;;;;;;3.28;2.70;;;18.00;99.90;;;;;;5103190;28;20046;-64
2023/07/29 08:12:54;;;;;;;5.15;2.95;;;18.10;99.90;;;;;;5127086;27;20448;-65
2023/07/29 08:15:21;;;;;;;3.97;2.67;;;18.20;99.90;;;;;;5130927;28;20050;-65
2023/07/29 08:17:48;;;;;;;4.82;3.38;;;18.50;99.90;;;;;;5128869;28;20043;-65
2023/07/29 08:20:15;;;;;;;6.72;3.83;;;18.50;99.90;;;;;;5130815;28;20031;-65
2023/07/29 08:22:42;;;;;;;5.13;3.35;;;18.80;99.90;;;;;;5126294;27;20046;-65
2023/07/29 08:25:09;;;;;;;4.47;3.50;;;19.00;99.90;;;;;;5121345;28;20058;-65
2023/07/29 08:27:35;;;;;;;6.60;3.72;;;19.10;99.90;;;;;;5131163;28;20058;-65
2023/07/29 08:30:02;;;;;;;5.75;3.38;;;19.00;99.90;;;;;;5128531;28;21406;-65
2023/07/29 08:32:29;;;;;;;4.07;3.00;;;19.20;99.90;;;;;;5129668;28;20043;-65
2023/07/29 08:34:56;;;;;;;4.38;3.38;;;19.40;99.90;;;;;;5130869;28;20039;-65
2023/07/29 08:37:23;;;;;;;4.28;2.88;;;19.70;99.90;;;;;;5129020;27;20064;-64
2023/07/29 08:39:49;;;;;;;4.05;2.72;;;19.70;99.90;;;;;;5130304;27;20047;-65
2023/07/29 08:42:18;;;;;;;4.95;2.92;;;19.90;99.90;;;;;;5128258;27;20469;-64
2023/07/29 08:44:49;;;;;;;5.13;2.65;;;20.20;99.90;;;;;;5133966;27;20345;-65
2023/07/29 08:47:16;;;;;;;6.78;2.75;;;20.40;99.90;;;;;;5128044;27;20037;-65
2023/07/29 08:49:45;;;;;;;7.10;3.67;;;20.80;99.90;;;;;;5134310;27;20043;-64
2023/07/29 08:52:14;;;;;;;2.65;2.22;;;21.00;99.90;;;;;;5132977;27;20027;-65
2023/07/29 08:54:41;;;;;;;5.88;2.90;;;21.00;99.90;;;;;;5130850;27;20043;-64
2023/07/29 08:57:08;;;;;;;4.55;3.10;;;20.60;99.90;;;;;;5130414;27;20035;-64
2023/07/29 08:59:36;;;;;;;2.97;2.33;;;20.70;99.90;;;;;;5134377;27;20077;-64
2023/07/29 09:02:02;;;;;;;;;;;20.60;99.90;;;;;;5132657;27;20475;-64
2023/07/29 09:04:29;;;;;;;3.13;2.38;;;20.60;99.90;;;;;;5131926;27;19925;-64
2023/07/29 09:06:58;;;;;;;5.07;2.75;;;20.80;99.90;;;;;;5108782;27;20051;-64
2023/07/29 09:09:25;;;;;;;4.82;2.42;;;21.10;99.90;;;;;;5131451;27;20497;-64
2023/07/29 09:11:52;;;;;;;4.22;2.53;;;21.40;99.90;;;;;;5132973;27;20106;-64
2023/07/29 09:14:19;;;;;;;4.28;2.55;;;21.60;99.90;;;;;;5131983;27;20123;-64
2023/07/29 09:16:46;;;;;;;4.57;2.35;;;21.70;99.90;;;;;;5133307;27;20043;-64
2023/07/29 09:19:13;;;;;;;4.07;2.80;;;21.60;99.90;;;;;;5133829;27;20039;-64
2023/07/29 09:21:41;;;;;;;8.75;2.20;;;21.40;99.90;;;;;;5132166;27;20047;-65
2023/07/29 09:24:08;;;;;;;4.75;2.33;;;21.30;99.90;;;;;;5133343;27;20429;-65
2023/07/29 09:26:35;;;;;;;5.50;2.60;;;21.20;99.90;;;;;;5130435;27;20081;-65
2023/07/29 09:29:03;;;;;;;5.97;2.28;;;21.00;99.90;;;;;;5134132;27;20043;-65
2023/07/29 09:31:30;;;;;;;7.50;2.15;;;20.90;99.90;;;;;;5127429;27;20071;-65
2023/07/29 09:33:58;;;;;;;;;;;20.90;99.90;;;;;;5134421;27;20076;-64
2023/07/29 09:36:25;;;;;;;2.38;2.10;;;20.80;99.90;;;;;;5132815;27;19920;-64
2023/07/29 09:38:57;;;;;;;2.53;1.98;;;20.80;99.90;;;;;;5128482;27;20043;-65
2023/07/29 09:41:28;;;;;;;3.00;2.08;;;21.00;99.90;;;;;;5131685;27;20492;-65
2023/07/29 09:43:57;;;;;;;3.60;2.40;;;21.10;99.90;;;;;;5124372;27;20047;-65
2023/07/29 09:46:26;;;;;;;4.85;2.10;;;21.10;99.90;;;;;;5134707;27;20564;-64
2023/07/29 09:48:55;;;;;;;5.97;1.80;;;21.10;99.90;;;;;;5142090;27;20459;-64
2023/07/29 09:51:22;;;;;;;4.55;2.22;;;21.20;99.90;;;;;;5135636;27;20122;-65
2023/07/29 09:53:52;;;;;;;3.78;2.03;;;21.30;99.90;;;;;;5147160;27;20037;-64
2023/07/29 09:56:26;;;;;;;3.20;2.10;;;21.40;99.90;;;;;;5120789;27;20081;-64
2023/07/29 09:58:57;;;;;;;2.80;2.25;;;21.60;99.90;;;;;;5122524;27;20616;-64
2023/07/29 10:01:24;;;;;;;3.05;2.00;;;21.90;99.90;;;;;;5132101;27;20042;-64
2023/07/29 10:03:52;;;;;;;4.07;1.77;;;22.10;99.90;;;;;;5133014;27;20039;-64
2023/07/29 10:06:19;;;;;;;1.83;1.55;;;22.50;99.90;;;;;;5125975;27;20499;-64
2023/07/29 10:08:49;;;;;;;3.30;2.13;;;22.80;99.90;;;;;;5129863;27;20100;-65
2023/07/29 10:11:16;;;;;;;5.78;1.85;;;22.80;99.90;;;;;;5129551;27;20084;-64
2023/07/29 10:13:43;;;;;;;6.13;2.25;;;22.80;99.90;;;;;;5122079;27;20036;-65
2023/07/29 10:16:26;;;;;;;2.70;2.13;;;22.70;99.90;;;;;;5129584;27;20043;-64
2023/07/29 10:18:54;;;;;;;2.88;1.73;;;22.70;99.90;;;;;;5113445;27;20039;-65
2023/07/29 10:21:22;;;;;;;5.53;2.22;;;23.20;99.90;;;;;;5130387;27;20543;-65
2023/07/29 10:23:55;;;;;;;2.17;1.70;;;23.40;99.90;;;;;;5130392;27;20053;-64
2023/07/29 10:26:23;;;;;;;5.25;1.75;;;23.80;99.90;;;;;;5129443;27;20046;-65
2023/07/29 10:28:53;;;;;;;4.55;1.77;;;23.90;99.90;;;;;;5125512;27;20035;-65
2023/07/29 10:31:22;;;;;;;3.17;1.77;;;24.00;99.90;;;;;;5128409;27;20035;-65
2023/07/29 10:33:49;;;;;;;2.63;2.00;;;24.10;99.90;;;;;;5132012;27;20053;-65
2023/07/29 10:36:17;;;;;;;3.58;2.22;;;24.20;99.90;;;;;;5133110;27;20065;-65
2023/07/29 10:38:46;;;;;;;2.40;1.63;;;24.00;99.90;;;;;;5125060;27;20154;-65
2023/07/29 10:41:13;;;;;;;;;;;23.90;99.90;;;;;;5132474;27;20055;-65
2023/07/29 10:43:40;;;;;;;2.15;1.75;;;23.50;99.90;;;;;;5129471;27;19926;-65
2023/07/29 10:46:18;;;;;;;2.35;1.75;;;23.30;99.90;;;;;;5132466;27;20035;-64
2023/07/29 10:48:51;;;;;;;3.60;1.88;;;23.50;99.90;;;;;;5129878;27;20683;-64
2023/07/29 10:51:37;;;;;;;3.83;2.13;;;23.80;99.90;;;;;;5133490;27;20566;-64
2023/07/29 10:54:14;;;;;;;5.45;2.03;;;24.20;99.90;;;;;;5130316;27;20446;-65
2023/07/29 10:56:42;;;;;;;2.75;1.85;;;24.40;99.90;;;;;;5130356;27;20046;-65
2023/07/29 10:59:12;;;;;;;2.30;1.55;;;24.60;99.90;;;;;;5110285;27;20043;-65
2023/07/29 11:01:42;;;;;;;3.58;2.20;;;24.40;99.90;;;;;;5131276;27;20434;-65
2023/07/29 11:04:27;;;;;;;2.33;1.80;;;24.40;99.90;;;;;;5131386;27;20039;-65
2023/07/29 11:07:03;;;;;;;2.72;2.13;;;24.50;99.90;;;;;;5125832;27;20047;-65
2023/07/29 11:09:59;;;;;;;4.22;2.10;;;24.50;99.90;;;;;;5115040;27;20100;-65
2023/07/29 11:12:38;;;;;;;6.13;1.90;;;24.60;99.90;;;;;;5127316;27;20046;-65
2023/07/29 11:15:21;;;;;;;2.85;1.88;;;24.60;99.90;;;;;;5129553;27;20399;-65
2023/07/29 11:17:58;;;;;;;2.25;2.05;;;24.60;99.90;;;;;;5129997;27;20035;-64
2023/07/29 11:20:30;;;;;;;2.33;1.88;;;24.50;99.90;;;;;;5128859;27;20491;-64
2023/07/29 11:23:00;;;;;;;2.72;1.58;;;24.50;99.90;;;;;;5125022;27;20518;-65
2023/07/29 11:25:29;;;;;;;3.10;1.80;;;24.70;99.90;;;;;;5129510;27;20035;-65
2023/07/29 11:27:58;;;;;;;1.88;1.67;;;24.70;99.90;;;;;;5130599;27;20035;-65
2023/07/29 11:30:29;;;;;;;2.13;1.80;;;24.70;99.90;;;;;;5128483;27;20046;-65
2023/07/29 11:32:57;;;;;;;2.75;2.22;;;24.80;99.90;;;;;;5131626;27;20079;-65
2023/07/29 11:35:24;;;;;;;2.53;1.50;;;25.10;99.90;;;;;;5131357;27;20038;-65
2023/07/29 11:37:53;;;;;;;3.88;1.98;;;25.30;99.90;;;;;;5139194;27;20043;-65
2023/07/29 11:40:21;;;;;;;2.35;2.00;;;25.20;99.90;;;;;;5139615;27;20035;-65
2023/07/29 11:42:50;;;;;;;6.65;2.00;;;25.00;99.90;;;;;;5138775;27;20043;-65
2023/07/29 11:45:19;;;;;;;4.75;1.80;;;24.80;99.90;;;;;;5136507;27;20043;-65
2023/07/29 11:47:46;;;;;;;2.78;2.20;;;25.00;99.90;;;;;;5140172;27;20511;-65
2023/07/29 11:50:14;;;;;;;2.55;2.05;;;25.20;99.90;;;;;;5134815;27;20063;-64
2023/07/29 11:52:43;;;;;;;2.53;1.58;;;25.00;99.90;;;;;;5131041;27;20039;-64
2023/07/29 11:55:12;;;;;;;3.50;2.05;;;24.90;99.90;;;;;;5128369;27;20040;-64
2023/07/29 11:57:39;;;;;;;2.85;1.95;;;24.60;99.90;;;;;;5133994;27;20399;-64
2023/07/29 12:00:09;;;;;;;4.07;1.55;;;24.70;99.90;;;;;;5136187;27;20122;-64
2023/07/29 12:02:39;;;;;;;2.97;1.95;;;24.90;99.90;;;;;;5139437;27;20039;-64
2023/07/29 12:05:07;;;;;;;2.55;1.85;;;24.80;99.90;;;;;;5138943;27;20066;-64
2023/07/29 12:07:33;;;;;;;2.13;1.55;;;24.90;99.90;;;;;;5141066;27;20511;-64
2023/07/29 12:10:03;;;;;;;;;;;25.10;99.90;;;;;;5138780;27;20039;-65
2023/07/29 12:12:30;;;;;;;3.65;2.47;;;25.20;99.90;;;;;;5140982;27;20014;-64
2023/07/29 12:14:57;;;;;;;2.80;1.90;;;25.40;99.90;;;;;;5117271;27;20842;-64
2023/07/29 12:17:23;;;;;;;28.38;9.27;;;25.70;99.90;;;;;;5135648;27;20487;-64
2023/07/29 12:19:53;;;;;;;;;;;25.80;99.90;;;;;;5131309;27;20514;-64
2023/07/29 12:22:21;;;;;;;15.63;5.07;;;25.50;99.90;;;;;;5126505;27;19919;-64
2023/07/29 12:24:51;;;;;;;9.57;2.90;;;25.60;99.90;;;;;;5133541;27;20091;-64
2023/07/29 12:27:22;;;;;;;4.15;2.08;;;25.90;99.90;;;;;;5134962;27;20039;-64
2023/07/29 12:29:52;;;;;;;2.95;2.10;;;26.10;99.90;;;;;;5131338;27;20495;-64
2023/07/29 12:32:19;;;;;;;4.43;3.75;;;25.90;99.90;;;;;;5133002;27;20496;-64
2023/07/29 12:34:45;;;;;;;4.75;2.10;;;25.80;99.90;;;;;;5129470;27;20039;-64
2023/07/29 12:37:12;;;;;;;2.60;2.05;;;25.70;99.90;;;;;;5134852;27;20035;-64
2023/07/29 12:39:42;;;;;;;5.63;2.42;;;25.40;99.90;;;;;;5134441;27;20495;-64
2023/07/29 12:42:09;;;;;;;4.82;2.10;;;25.70;99.90;;;;;;5129866;27;20096;-64
2023/07/29 12:44:37;;;;;;;3.20;1.98;;;25.90;99.90;;;;;;5134322;27;20038;-64
2023/07/29 12:47:06;;;;;;;5.18;2.50;;;25.90;99.90;;;;;;5127406;27;20041;-64
2023/07/29 12:49:33;;;;;;;3.45;2.28;;;25.80;99.90;;;;;;5134664;27;20032;-64
2023/07/29 12:52:00;;;;;;;3.42;1.95;;;26.10;99.90;;;;;;5129476;27;20039;-64
2023/07/29 12:54:27;;;;;;;3.30;2.03;;;26.50;99.90;;;;;;5134057;27;20035;-64